createdAt,value
2023-03-16T00:00:01.186Z,2.30
2023-03-16T00:01:01.157Z,3.10
2023-03-16T00:02:01.159Z,2.40
2023-03-16T00:03:01.199Z,3.10
2023-03-16T00:04:00.886Z,2.90
2023-03-16T00:05:00.882Z,3.20
2023-03-16T00:06:01.228Z,3.20
2023-03-16T00:07:01.156Z,2.50
2023-03-16T00:08:01.148Z,2.60
2023-03-16T00:09:01.161Z,3.00
2023-03-16T00:10:00.802Z,2.80
2023-03-16T00:11:01.325Z,2.50
2023-03-16T00:12:01.023Z,2.70
2023-03-16T00:13:00.783Z,2.50
2023-03-16T00:14:01.161Z,3.10
2023-03-16T00:15:00.780Z,2.80
2023-03-16T00:16:00.801Z,2.80
2023-03-16T00:17:00.782Z,2.70
2023-03-16T00:18:00.814Z,2.10
2023-03-16T00:19:00.712Z,2.40
2023-03-16T00:20:00.693Z,2.30
2023-03-16T00:21:00.912Z,2.40
2023-03-16T00:22:00.682Z,2.60
2023-03-16T00:23:00.693Z,2.60
2023-03-16T00:24:01.012Z,2.40
2023-03-16T00:25:01.040Z,2.70
2023-03-16T00:26:00.631Z,2.30
2023-03-16T00:27:00.951Z,3.30
2023-03-16T00:28:00.589Z,2.90
2023-03-16T00:29:00.619Z,2.50
2023-03-16T00:30:00.627Z,2.50
2023-03-16T00:31:01.180Z,2.60
2023-03-16T00:32:00.779Z,2.50
2023-03-16T00:33:00.961Z,3.00
2023-03-16T00:34:00.534Z,2.30
2023-03-16T00:35:01.172Z,2.70
2023-03-16T00:36:00.757Z,3.00
2023-03-16T00:37:01.175Z,2.70
2023-03-16T00:38:01.171Z,2.30
2023-03-16T00:39:00.831Z,2.40
2023-03-16T00:40:01.175Z,2.20
2023-03-16T00:41:01.175Z,2.90
2023-03-16T00:42:00.709Z,2.70
2023-03-16T00:43:01.184Z,2.80
2023-03-16T00:44:00.402Z,3.30
2023-03-16T00:45:00.439Z,2.20
2023-03-16T00:46:00.490Z,2.90
2023-03-16T00:47:00.454Z,3.10
2023-03-16T00:48:00.442Z,2.10
2023-03-16T00:49:00.462Z,2.20
2023-03-16T00:50:00.342Z,2.30
2023-03-16T00:51:00.489Z,3.00
2023-03-16T00:52:00.401Z,3.10
2023-03-16T00:53:00.514Z,3.00
2023-03-16T00:54:00.548Z,3.40
2023-03-16T00:55:00.549Z,2.40
2023-03-16T00:56:00.378Z,2.60
2023-03-16T00:57:00.440Z,4.00
2023-03-16T00:58:00.569Z,2.90
2023-03-16T00:59:00.587Z,2.30
2023-03-16T01:00:00.249Z,2.90
2023-03-16T01:01:00.293Z,2.90
2023-03-16T01:02:00.204Z,2.40
2023-03-16T01:03:00.688Z,2.60
2023-03-16T01:04:00.211Z,2.70
2023-03-16T01:05:00.205Z,2.50
2023-03-16T01:06:00.209Z,3.40
2023-03-16T01:07:00.302Z,2.80
2023-03-16T01:08:00.143Z,3.40
2023-03-16T01:09:00.155Z,3.00
2023-03-16T01:10:00.228Z,3.10
2023-03-16T01:11:00.205Z,2.80
2023-03-16T01:12:00.218Z,2.60
2023-03-16T01:13:00.222Z,2.80
2023-03-16T01:14:00.104Z,2.70
2023-03-16T01:15:00.108Z,3.20
2023-03-16T01:16:00.579Z,3.00
2023-03-16T01:17:00.171Z,3.20
2023-03-16T01:18:00.021Z,3.40
2023-03-16T01:19:00.200Z,3.60
2023-03-16T01:20:00.201Z,3.30
2023-03-16T01:21:00.207Z,3.60
2023-03-16T01:22:00.206Z,3.70
2023-03-16T01:23:00.177Z,3.50
2023-03-16T01:23:59.952Z,3.20
2023-03-16T01:24:59.949Z,3.70
2023-03-16T01:26:00.209Z,3.60
2023-03-16T01:27:00.209Z,2.80
2023-03-16T01:28:00.116Z,3.60
2023-03-16T01:29:00.213Z,2.70
2023-03-16T01:29:59.882Z,3.10
2023-03-16T01:31:00.360Z,2.90
2023-03-16T01:31:59.880Z,3.50
2023-03-16T01:32:59.933Z,2.40
2023-03-16T01:33:59.849Z,2.90
2023-03-16T01:35:00.214Z,2.40
2023-03-16T01:35:59.946Z,3.10
2023-03-16T01:37:00.072Z,2.40
2023-03-16T01:37:59.804Z,2.80
2023-03-16T01:39:00.940Z,3.60
2023-03-16T01:39:59.782Z,2.90
2023-03-16T01:40:59.761Z,3.70
2023-03-16T01:41:59.772Z,2.80
2023-03-16T01:43:00.227Z,3.70
2023-03-16T01:43:59.825Z,3.60
2023-03-16T01:45:00.210Z,3.20
2023-03-16T01:45:59.702Z,2.90
2023-03-16T01:47:00.687Z,3.20
2023-03-16T01:47:59.962Z,3.20
2023-03-16T01:48:59.664Z,3.20
2023-03-16T01:49:59.830Z,2.90
2023-03-16T01:50:59.657Z,2.80
2023-03-16T01:51:59.669Z,3.20
2023-03-16T01:52:59.711Z,3.10
2023-03-16T01:53:59.648Z,2.50
2023-03-16T01:54:59.598Z,3.00
2023-03-16T01:55:59.636Z,2.60
2023-03-16T01:56:59.608Z,3.00
2023-03-16T01:57:59.614Z,3.30
2023-03-16T01:58:59.884Z,3.70
2023-03-16T01:59:59.699Z,3.40
2023-03-16T02:00:59.758Z,3.60
2023-03-16T02:01:59.915Z,3.20
2023-03-16T02:03:00.034Z,2.90
2023-03-16T02:03:59.648Z,3.10
2023-03-16T02:04:59.495Z,2.30
2023-03-16T02:05:59.527Z,2.60
2023-03-16T02:06:59.511Z,3.70
2023-03-16T02:07:59.527Z,3.40
2023-03-16T02:08:59.470Z,8.20
2023-03-16T02:09:59.565Z,3.50
2023-03-16T02:10:59.567Z,3.10
2023-03-16T02:11:59.432Z,3.70
2023-03-16T02:12:59.434Z,2.70
2023-03-16T02:13:59.634Z,3.70
2023-03-16T02:14:59.613Z,2.90
2023-03-16T02:15:59.724Z,3.20
2023-03-16T02:16:59.610Z,3.00
2023-03-16T02:17:59.654Z,3.50
2023-03-16T02:18:59.655Z,2.40
2023-03-16T02:19:59.334Z,3.30
2023-03-16T02:20:59.310Z,2.70
2023-03-16T02:21:59.709Z,2.90
2023-03-16T02:22:59.704Z,3.50
2023-03-16T02:23:59.727Z,2.90
2023-03-16T02:24:59.265Z,3.40
2023-03-16T02:25:59.271Z,2.80
2023-03-16T02:26:59.268Z,3.30
2023-03-16T02:27:59.267Z,2.30
2023-03-16T02:28:59.212Z,2.80
2023-03-16T02:29:59.258Z,2.50
2023-03-16T02:30:59.292Z,2.50
2023-03-16T02:31:59.258Z,2.60
2023-03-16T02:32:59.340Z,2.80
2023-03-16T02:33:59.186Z,3.30
2023-03-16T02:34:59.249Z,2.90
2023-03-16T02:35:59.304Z,2.40
2023-03-16T02:36:59.122Z,2.80
2023-03-16T02:37:59.202Z,3.00
2023-03-16T02:38:59.114Z,3.00
2023-03-16T02:39:59.129Z,2.80
2023-03-16T02:40:59.072Z,2.80
2023-03-16T02:41:59.192Z,2.60
2023-03-16T02:42:59.056Z,2.90
2023-03-16T02:43:59.064Z,2.60
2023-03-16T02:44:59.037Z,2.50
2023-03-16T02:45:59.064Z,2.50
2023-03-16T02:46:59.268Z,2.40
2023-03-16T02:47:59.032Z,2.90
2023-03-16T02:48:59.022Z,3.70
2023-03-16T02:49:58.990Z,2.40
2023-03-16T02:50:59.274Z,2.50
2023-03-16T02:51:58.961Z,3.00
2023-03-16T02:52:58.950Z,2.80
2023-03-16T02:53:58.959Z,2.60
2023-03-16T02:54:59.274Z,2.50
2023-03-16T02:55:59.299Z,2.60
2023-03-16T02:56:59.260Z,2.60
2023-03-16T02:57:59.181Z,3.00
2023-03-16T02:58:58.869Z,2.60
2023-03-16T02:59:58.878Z,2.50
2023-03-16T03:00:58.846Z,2.60
2023-03-16T03:01:58.863Z,2.40
2023-03-16T03:02:58.863Z,3.30
2023-03-16T03:03:59.291Z,2.50
2023-03-16T03:04:58.805Z,2.80
2023-03-16T03:05:58.800Z,2.80
2023-03-16T03:06:59.276Z,2.70
2023-03-16T03:07:58.794Z,2.50
2023-03-16T03:08:58.758Z,2.20
2023-03-16T03:09:59.291Z,2.40
2023-03-16T03:10:58.905Z,2.90
2023-03-16T03:11:59.032Z,3.80
2023-03-16T03:12:59.290Z,2.50
2023-03-16T03:13:58.710Z,2.40
2023-03-16T03:14:58.678Z,2.50
2023-03-16T03:15:58.772Z,2.20
2023-03-16T03:16:58.671Z,2.60
2023-03-16T03:17:59.167Z,2.90
2023-03-16T03:18:59.291Z,2.30
2023-03-16T03:19:58.688Z,2.60
2023-03-16T03:20:59.242Z,2.50
2023-03-16T03:21:59.040Z,2.00
2023-03-16T03:22:58.592Z,2.10
2023-03-16T03:23:58.594Z,3.10
2023-03-16T03:24:58.584Z,2.60
2023-03-16T03:25:58.580Z,2.10
2023-03-16T03:26:58.572Z,2.00
2023-03-16T03:27:58.637Z,2.90
2023-03-16T03:28:58.623Z,2.50
2023-03-16T03:29:58.517Z,2.70
2023-03-16T03:30:58.570Z,2.40
2023-03-16T03:31:58.672Z,2.10
2023-03-16T03:32:58.494Z,2.70
2023-03-16T03:33:58.790Z,2.90
2023-03-16T03:34:58.715Z,2.30
2023-03-16T03:35:58.787Z,2.40
2023-03-16T03:36:58.743Z,2.60
2023-03-16T03:37:58.446Z,2.20
2023-03-16T03:38:58.402Z,2.60
2023-03-16T03:39:58.413Z,2.10
2023-03-16T03:40:58.377Z,2.20
2023-03-16T03:41:58.399Z,2.20
2023-03-16T03:42:58.396Z,2.20
2023-03-16T03:43:58.840Z,2.50
2023-03-16T03:44:58.341Z,3.10
2023-03-16T03:45:58.501Z,3.50
2023-03-16T03:46:58.367Z,2.40
2023-03-16T03:47:58.324Z,2.70
2023-03-16T03:48:58.297Z,4.40
2023-03-16T03:49:58.913Z,2.40
2023-03-16T03:50:58.923Z,2.60
2023-03-16T03:51:58.321Z,2.90
2023-03-16T03:52:58.267Z,3.50
2023-03-16T03:53:58.253Z,3.30
2023-03-16T03:54:58.299Z,2.80
2023-03-16T03:55:58.321Z,3.40
2023-03-16T03:56:58.203Z,2.50
2023-03-16T03:57:58.236Z,2.80
2023-03-16T03:58:59.033Z,2.40
2023-03-16T03:59:58.333Z,2.50
2023-03-16T04:00:58.150Z,2.90
2023-03-16T04:01:59.034Z,3.40
2023-03-16T04:02:58.219Z,2.70
2023-03-16T04:03:58.135Z,2.60
2023-03-16T04:04:59.117Z,2.30
2023-03-16T04:05:58.111Z,2.30
2023-03-16T04:06:58.345Z,3.10
2023-03-16T04:07:58.331Z,3.30
2023-03-16T04:08:58.224Z,3.10
2023-03-16T04:09:58.089Z,3.50
2023-03-16T04:10:58.337Z,2.80
2023-03-16T04:11:58.050Z,3.80
2023-03-16T04:12:58.018Z,2.90
2023-03-16T04:13:58.630Z,2.70
2023-03-16T04:14:58.001Z,2.40
2023-03-16T04:15:58.015Z,3.10
2023-03-16T04:16:58.031Z,2.90
2023-03-16T04:17:57.987Z,2.60
2023-03-16T04:18:57.956Z,2.60
2023-03-16T04:19:58.113Z,3.40
2023-03-16T04:20:58.143Z,2.00
2023-03-16T04:21:58.176Z,2.60
2023-03-16T04:22:57.978Z,5.10
2023-03-16T04:23:58.251Z,2.80
2023-03-16T04:24:57.874Z,2.60
2023-03-16T04:25:58.333Z,3.40
2023-03-16T04:26:57.874Z,2.70
2023-03-16T04:27:58.394Z,2.60
2023-03-16T04:28:57.857Z,2.90
2023-03-16T04:29:58.437Z,2.90
2023-03-16T04:30:57.884Z,2.70
2023-03-16T04:31:58.221Z,3.10
2023-03-16T04:32:58.400Z,3.00
2023-03-16T04:33:58.558Z,2.80
2023-03-16T04:34:57.907Z,3.10
2023-03-16T04:35:58.655Z,3.00
2023-03-16T04:36:58.652Z,3.20
2023-03-16T04:37:57.761Z,2.80
2023-03-16T04:38:58.126Z,2.80
2023-03-16T04:39:58.353Z,2.90
2023-03-16T04:40:58.355Z,2.20
2023-03-16T04:41:58.360Z,2.90
2023-03-16T04:42:57.661Z,3.00
2023-03-16T04:43:57.704Z,3.00
2023-03-16T04:44:57.677Z,3.10
2023-03-16T04:45:57.672Z,2.80
2023-03-16T04:46:57.711Z,2.30
2023-03-16T04:47:57.732Z,3.00
2023-03-16T04:48:57.740Z,2.20
2023-03-16T04:49:57.774Z,4.80
2023-03-16T04:50:57.771Z,3.00
2023-03-16T04:51:57.591Z,4.50
2023-03-16T04:52:57.544Z,2.50
2023-03-16T04:53:57.821Z,2.70
2023-03-16T04:54:57.824Z,2.90
2023-03-16T04:55:57.584Z,2.40
2023-03-16T04:56:57.849Z,2.60
2023-03-16T04:57:57.863Z,2.50
2023-03-16T04:58:57.868Z,2.30
2023-03-16T04:59:57.749Z,2.60
2023-03-16T05:00:57.904Z,2.30
2023-03-16T05:01:58.000Z,3.70
2023-03-16T05:02:57.468Z,2.70
2023-03-16T05:03:59.605Z,7.00
2023-03-16T05:04:57.498Z,3.50
2023-03-16T05:05:57.463Z,3.30
2023-03-16T05:06:57.402Z,3.30
2023-03-16T05:07:57.388Z,2.70
2023-03-16T05:08:57.370Z,3.00
2023-03-16T05:09:57.387Z,3.20
2023-03-16T05:10:57.382Z,2.60
2023-03-16T05:11:57.397Z,3.00
2023-03-16T05:12:57.319Z,2.70
2023-03-16T05:13:57.314Z,2.90
2023-03-16T05:14:57.290Z,2.50
2023-03-16T05:15:57.335Z,3.10
2023-03-16T05:16:57.284Z,2.50
2023-03-16T05:17:57.325Z,3.50
2023-03-16T05:18:57.256Z,2.80
2023-03-16T05:19:57.383Z,3.30
2023-03-16T05:20:57.230Z,3.30
2023-03-16T05:21:57.226Z,3.50
2023-03-16T05:22:57.212Z,3.70
2023-03-16T05:23:57.222Z,3.10
2023-03-16T05:24:57.179Z,3.30
2023-03-16T05:25:57.183Z,3.50
2023-03-16T05:26:57.164Z,3.30
2023-03-16T05:27:57.407Z,4.20
2023-03-16T05:28:57.130Z,4.10
2023-03-16T05:29:57.139Z,3.30
2023-03-16T05:30:57.142Z,3.10
2023-03-16T05:31:57.120Z,3.90
2023-03-16T05:32:57.147Z,2.70
2023-03-16T05:33:57.095Z,3.00
2023-03-16T05:34:57.395Z,3.20
2023-03-16T05:35:57.453Z,3.30
2023-03-16T05:36:57.041Z,4.00
2023-03-16T05:37:57.059Z,4.40
2023-03-16T05:38:57.022Z,3.90
2023-03-16T05:39:57.031Z,4.20
2023-03-16T05:40:56.998Z,2.80
2023-03-16T05:41:57.012Z,3.30
2023-03-16T05:42:57.403Z,3.70
2023-03-16T05:43:57.349Z,3.10
2023-03-16T05:44:56.950Z,3.90
2023-03-16T05:45:56.980Z,3.70
2023-03-16T05:46:57.045Z,3.40
2023-03-16T05:47:56.955Z,3.30
2023-03-16T05:48:56.927Z,3.90
2023-03-16T05:49:56.897Z,3.50
2023-03-16T05:50:56.894Z,2.90
2023-03-16T05:51:57.204Z,3.00
2023-03-16T05:52:56.882Z,2.90
2023-03-16T05:53:56.842Z,3.00
2023-03-16T05:54:56.850Z,3.70
2023-03-16T05:55:56.832Z,4.20
2023-03-16T05:56:56.827Z,3.60
2023-03-16T05:57:56.825Z,4.50
2023-03-16T05:58:56.953Z,3.40
2023-03-16T05:59:57.207Z,3.90
2023-03-16T06:00:56.769Z,4.10
2023-03-16T06:01:56.769Z,3.60
2023-03-16T06:02:56.788Z,3.40
2023-03-16T06:03:56.798Z,3.30
2023-03-16T06:04:56.735Z,3.60
2023-03-16T06:05:56.715Z,3.30
2023-03-16T06:06:56.718Z,3.80
2023-03-16T06:07:56.792Z,4.30
2023-03-16T06:08:56.681Z,3.40
2023-03-16T06:09:56.823Z,4.20
2023-03-16T06:10:56.664Z,3.90
2023-03-16T06:11:56.639Z,3.70
2023-03-16T06:12:58.451Z,3.80
2023-03-16T06:13:56.872Z,3.50
2023-03-16T06:14:56.652Z,4.00
2023-03-16T06:15:56.935Z,3.10
2023-03-16T06:16:56.592Z,3.50
2023-03-16T06:17:56.575Z,4.00
2023-03-16T06:18:59.146Z,3.30
2023-03-16T06:19:56.545Z,3.10
2023-03-16T06:20:56.554Z,3.90
2023-03-16T06:21:56.584Z,3.20
2023-03-16T06:22:56.535Z,4.40
2023-03-16T06:23:57.024Z,3.70
2023-03-16T06:24:56.510Z,3.60
2023-03-16T06:25:57.065Z,4.20
2023-03-16T06:26:56.472Z,3.50
2023-03-16T06:27:56.469Z,3.50
2023-03-16T06:28:56.460Z,3.80
2023-03-16T06:29:56.421Z,3.10
2023-03-16T06:30:56.512Z,4.30
2023-03-16T06:31:56.419Z,3.60
2023-03-16T06:32:56.478Z,4.00
2023-03-16T06:33:56.387Z,3.80
2023-03-16T06:34:56.379Z,3.30
2023-03-16T06:35:56.460Z,3.70
2023-03-16T06:36:56.362Z,4.20
2023-03-16T06:37:56.365Z,4.00
2023-03-16T06:38:56.359Z,3.80
2023-03-16T06:39:56.449Z,3.90
2023-03-16T06:40:56.319Z,3.60
2023-03-16T06:41:56.292Z,3.60
2023-03-16T06:42:56.313Z,3.70
2023-03-16T06:43:56.263Z,4.30
2023-03-16T06:44:56.279Z,4.70
2023-03-16T06:45:56.536Z,3.70
2023-03-16T06:46:56.277Z,4.00
2023-03-16T06:47:56.450Z,3.10
2023-03-16T06:48:56.233Z,4.00
2023-03-16T06:49:56.657Z,4.30
2023-03-16T06:50:56.222Z,4.40
2023-03-16T06:51:56.175Z,3.20
2023-03-16T06:52:56.178Z,3.60
2023-03-16T06:53:56.459Z,3.80
2023-03-16T06:54:56.360Z,5.50
2023-03-16T06:55:56.458Z,3.90
2023-03-16T06:56:56.136Z,4.30
2023-03-16T06:57:56.967Z,4.20
2023-03-16T06:58:56.108Z,4.80
2023-03-16T06:59:56.462Z,4.20
2023-03-16T07:00:56.499Z,4.70
2023-03-16T07:01:56.076Z,3.40
2023-03-16T07:02:56.083Z,5.10
2023-03-16T07:03:56.523Z,4.50
2023-03-16T07:04:56.053Z,4.20
2023-03-16T07:05:57.136Z,5.90
2023-03-16T07:06:57.097Z,5.00
2023-03-16T07:07:56.466Z,4.60
2023-03-16T07:08:55.988Z,5.10
2023-03-16T07:09:55.981Z,5.30
2023-03-16T07:10:56.007Z,4.50
2023-03-16T07:11:56.063Z,3.70
2023-03-16T07:12:55.943Z,4.70
2023-03-16T07:13:56.125Z,4.30
2023-03-16T07:14:56.108Z,4.30
2023-03-16T07:15:56.214Z,4.00
2023-03-16T07:16:56.305Z,4.70
2023-03-16T07:17:56.277Z,4.70
2023-03-16T07:18:56.036Z,4.20
2023-03-16T07:19:56.350Z,4.00
2023-03-16T07:20:55.836Z,4.80
2023-03-16T07:21:55.846Z,4.10
2023-03-16T07:22:57.242Z,6.10
2023-03-16T07:23:55.821Z,4.50
2023-03-16T07:24:55.860Z,4.70
2023-03-16T07:25:57.225Z,4.70
2023-03-16T07:26:55.885Z,4.70
2023-03-16T07:27:55.908Z,4.30
2023-03-16T07:28:58.065Z,4.00
2023-03-16T07:29:55.930Z,3.80
2023-03-16T07:31:03.851Z,3.60
2023-03-16T07:31:56.750Z,3.60
2023-03-16T07:32:55.994Z,4.10
2023-03-16T07:33:55.996Z,4.00
2023-03-16T07:34:58.111Z,4.40
2023-03-16T07:35:56.061Z,3.70
2023-03-16T07:36:56.006Z,4.50
2023-03-16T07:37:56.023Z,4.50
2023-03-16T07:38:56.046Z,3.80
2023-03-16T07:39:56.048Z,4.10
2023-03-16T07:40:55.851Z,4.00
2023-03-16T07:41:56.092Z,4.20
2023-03-16T07:42:55.888Z,3.60
2023-03-16T07:43:55.723Z,4.20
2023-03-16T07:44:56.133Z,3.70
2023-03-16T07:45:56.241Z,3.80
2023-03-16T07:46:55.547Z,4.10
2023-03-16T07:47:55.641Z,4.00
2023-03-16T07:48:55.506Z,3.50
2023-03-16T07:49:55.503Z,4.50
2023-03-16T07:50:55.488Z,4.00
2023-03-16T07:51:55.501Z,3.40
2023-03-16T07:52:55.499Z,4.00
2023-03-16T07:53:55.499Z,4.00
2023-03-16T07:54:55.440Z,4.20
2023-03-16T07:55:55.447Z,3.50
2023-03-16T07:56:55.422Z,3.50
2023-03-16T07:57:55.446Z,4.00
2023-03-16T07:58:55.421Z,4.00
2023-03-16T07:59:55.413Z,4.00
2023-03-16T08:00:55.386Z,4.80
2023-03-16T08:01:55.402Z,4.40
2023-03-16T08:02:55.359Z,5.00
2023-03-16T08:03:55.466Z,5.20
2023-03-16T08:04:55.333Z,4.20
2023-03-16T08:05:55.354Z,5.00
2023-03-16T08:06:55.328Z,4.30
2023-03-16T08:07:55.336Z,4.20
2023-03-16T08:08:55.321Z,5.70
2023-03-16T08:09:55.317Z,3.80
2023-03-16T08:10:56.703Z,4.50
2023-03-16T08:11:55.281Z,3.80
2023-03-16T08:12:55.311Z,4.60
2023-03-16T08:13:55.292Z,5.30
2023-03-16T08:14:55.263Z,4.70
2023-03-16T08:15:55.311Z,5.30
2023-03-16T08:16:55.206Z,4.70
2023-03-16T08:17:55.239Z,4.20
2023-03-16T08:18:55.244Z,3.70
2023-03-16T08:19:55.202Z,4.30
2023-03-16T08:20:55.136Z,4.30
2023-03-16T08:22:01.611Z,3.70
2023-03-16T08:22:56.132Z,3.80
2023-03-16T08:23:55.207Z,5.20
2023-03-16T08:24:55.104Z,5.00
2023-03-16T08:25:55.104Z,4.60
2023-03-16T08:26:55.075Z,4.10
2023-03-16T08:27:55.199Z,3.90
2023-03-16T08:28:55.263Z,4.20
2023-03-16T08:29:55.219Z,4.50
2023-03-16T08:30:55.217Z,4.30
2023-03-16T08:31:55.070Z,4.10
2023-03-16T08:32:55.021Z,4.10
2023-03-16T08:33:55.018Z,4.30
2023-03-16T08:34:54.981Z,4.70
2023-03-16T08:35:55.135Z,4.00
2023-03-16T08:36:54.944Z,4.50
2023-03-16T08:37:55.148Z,5.60
2023-03-16T08:39:06.490Z,4.30
2023-03-16T08:39:56.538Z,4.70
2023-03-16T08:40:55.201Z,4.80
2023-03-16T08:41:54.934Z,4.00
2023-03-16T08:42:54.886Z,4.00
2023-03-16T08:43:54.904Z,4.60
2023-03-16T08:44:54.913Z,4.40
2023-03-16T08:45:54.926Z,4.90
2023-03-16T08:46:55.023Z,4.30
2023-03-16T08:47:54.944Z,4.00
2023-03-16T08:48:54.826Z,4.50
2023-03-16T08:49:54.978Z,4.80
2023-03-16T08:50:54.828Z,4.60
2023-03-16T08:51:55.007Z,4.50
2023-03-16T08:52:55.013Z,4.60
2023-03-16T08:53:55.027Z,4.60
2023-03-16T08:55:02.855Z,5.10
2023-03-16T08:55:55.783Z,4.50
2023-03-16T08:56:55.065Z,4.70
2023-03-16T08:57:55.080Z,4.90
2023-03-16T08:58:55.094Z,4.50
2023-03-16T08:59:55.151Z,4.50
2023-03-16T09:00:54.663Z,5.40
2023-03-16T09:01:55.150Z,5.00
2023-03-16T09:02:55.134Z,5.20
2023-03-16T09:03:54.695Z,5.80
2023-03-16T09:04:55.181Z,5.90
2023-03-16T09:05:55.185Z,4.80
2023-03-16T09:07:10.153Z,5.10
2023-03-16T09:07:56.151Z,5.70
2023-03-16T09:08:54.583Z,5.20
2023-03-16T09:09:54.582Z,4.90
2023-03-16T09:10:54.549Z,4.80
2023-03-16T09:11:54.542Z,5.50
2023-03-16T09:12:54.539Z,4.60
2023-03-16T09:13:54.567Z,4.70
2023-03-16T09:14:54.502Z,4.90
2023-03-16T09:15:54.518Z,4.80
2023-03-16T09:16:54.471Z,5.60
2023-03-16T09:17:54.517Z,4.80
2023-03-16T09:18:54.502Z,3.90
2023-03-16T09:19:58.785Z,5.90
2023-03-16T09:20:55.443Z,4.10
2023-03-16T09:21:54.563Z,4.60
2023-03-16T09:22:54.401Z,4.40
2023-03-16T09:23:54.422Z,4.60
2023-03-16T09:24:54.386Z,3.80
2023-03-16T09:25:54.448Z,4.40
2023-03-16T09:26:54.656Z,4.70
2023-03-16T09:27:54.422Z,3.90
2023-03-16T09:28:54.562Z,4.70
2023-03-16T09:29:54.334Z,5.30
2023-03-16T09:30:54.329Z,4.20
2023-03-16T09:31:54.328Z,4.20
2023-03-16T09:32:54.332Z,4.50
2023-03-16T09:33:54.297Z,4.00
2023-03-16T09:34:54.571Z,4.40
2023-03-16T09:35:54.312Z,3.70
2023-03-16T09:36:54.575Z,4.60
2023-03-16T09:38:07.829Z,3.60
2023-03-16T09:38:55.242Z,4.00
2023-03-16T09:39:57.960Z,3.60
2023-03-16T09:40:55.236Z,3.50
2023-03-16T09:41:54.194Z,4.30
2023-03-16T09:42:54.585Z,4.20
2023-03-16T09:43:54.171Z,3.70
2023-03-16T09:44:54.476Z,3.70
2023-03-16T09:45:54.219Z,3.80
2023-03-16T09:46:54.122Z,4.20
2023-03-16T09:47:54.132Z,3.40
2023-03-16T09:48:54.106Z,4.50
2023-03-16T09:49:54.113Z,3.70
2023-03-16T09:50:55.065Z,4.10
2023-03-16T09:51:54.592Z,4.30
2023-03-16T09:52:54.591Z,3.70
2023-03-16T09:53:54.056Z,3.90
2023-03-16T09:54:54.060Z,3.90
2023-03-16T09:55:54.051Z,4.40
2023-03-16T09:56:54.036Z,3.60
2023-03-16T09:57:54.012Z,3.20
2023-03-16T09:58:54.588Z,3.80
2023-03-16T09:59:54.406Z,7.20
2023-03-16T10:00:54.624Z,3.40
2023-03-16T10:01:54.596Z,3.80
2023-03-16T10:02:54.600Z,3.60
2023-03-16T10:03:53.964Z,3.40
2023-03-16T10:04:53.934Z,3.50
2023-03-16T10:06:29.685Z,4.10
2023-03-16T10:06:53.963Z,4.10
2023-03-16T10:07:53.897Z,3.40
2023-03-16T10:13:49.613Z,2.90
2023-03-16T10:14:42.345Z,2.80
2023-03-16T10:15:42.298Z,3.40
2023-03-16T10:16:42.353Z,4.50
2023-03-16T10:17:42.351Z,3.60
2023-03-16T10:18:42.216Z,3.50
2023-03-16T10:19:42.399Z,3.40
2023-03-16T10:20:42.444Z,3.40
2023-03-16T10:21:42.165Z,3.40
2023-03-16T10:22:42.183Z,3.70
2023-03-16T10:23:42.142Z,3.20
2023-03-16T10:24:42.150Z,3.10
2023-03-16T10:25:42.136Z,4.20
2023-03-16T10:26:42.104Z,3.00
2023-03-16T10:27:42.231Z,3.70
2023-03-16T10:28:42.181Z,3.10
2023-03-16T10:29:42.103Z,2.90
2023-03-16T10:30:42.997Z,3.00
2023-03-16T10:31:42.107Z,3.20
2023-03-16T10:32:42.067Z,3.60
2023-03-16T10:33:42.035Z,4.00
2023-03-16T10:34:42.016Z,2.70
2023-03-16T10:35:42.344Z,3.50
2023-03-16T10:36:42.382Z,3.30
2023-03-16T10:37:42.008Z,3.20
2023-03-16T10:38:42.381Z,2.80
2023-03-16T10:39:41.981Z,3.00
2023-03-16T10:40:41.961Z,3.40
2023-03-16T10:41:42.036Z,3.30
2023-03-16T10:42:41.938Z,3.10
2023-03-16T10:43:42.406Z,2.90
2023-03-16T10:44:41.914Z,3.10
2023-03-16T10:45:42.492Z,3.10
2023-03-16T10:46:42.026Z,3.50
2023-03-16T10:47:41.876Z,3.90
2023-03-16T10:48:41.858Z,3.90
2023-03-16T10:49:41.885Z,4.30
2023-03-16T10:50:41.833Z,3.80
2023-03-16T10:51:42.558Z,3.10
2023-03-16T10:52:41.831Z,4.10
2023-03-16T10:53:42.172Z,3.90
2023-03-16T10:54:42.511Z,3.80
2023-03-16T10:55:41.793Z,3.30
2023-03-16T10:56:41.769Z,3.90
2023-03-16T10:57:41.777Z,3.80
2023-03-16T10:58:42.527Z,3.50
2023-03-16T10:59:42.025Z,3.60
2023-03-16T11:00:41.732Z,3.10
2023-03-16T11:01:41.768Z,3.40
2023-03-16T11:02:41.747Z,3.30
2023-03-16T11:03:41.728Z,3.60
2023-03-16T11:04:41.744Z,3.40
2023-03-16T11:05:41.677Z,3.60
2023-03-16T11:06:41.652Z,3.30
2023-03-16T11:07:41.655Z,3.10
2023-03-16T11:08:41.825Z,3.20
2023-03-16T11:09:41.672Z,2.40
2023-03-16T11:10:54.746Z,2.70
2023-03-16T11:11:42.619Z,3.10
2023-03-16T11:12:41.591Z,2.80
2023-03-16T11:13:41.603Z,2.90
2023-03-16T11:14:41.575Z,2.70
2023-03-16T11:15:41.584Z,3.10
2023-03-16T11:16:41.608Z,2.70
2023-03-16T11:17:41.549Z,2.90
2023-03-16T11:18:41.534Z,3.20
2023-03-16T11:19:41.532Z,2.60
2023-03-16T11:20:41.489Z,2.50
2023-03-16T11:21:41.660Z,3.20
2023-03-16T11:22:41.489Z,2.60
2023-03-16T11:23:41.625Z,2.40
2023-03-16T11:24:41.464Z,2.80
2023-03-16T11:25:41.662Z,2.40
2023-03-16T11:26:41.430Z,2.80
2023-03-16T11:27:41.438Z,2.40
2023-03-16T11:28:41.397Z,2.60
2023-03-16T11:29:41.419Z,2.80
2023-03-16T11:30:41.396Z,3.10
2023-03-16T11:31:41.682Z,2.40
2023-03-16T11:32:41.717Z,2.80
2023-03-16T11:33:41.672Z,2.40
2023-03-16T11:34:41.679Z,2.50
2023-03-16T11:35:52.739Z,2.30
2023-03-16T11:36:42.673Z,2.30
2023-03-16T11:37:41.675Z,2.40
2023-03-16T11:38:41.699Z,2.30
2023-03-16T11:39:41.688Z,2.60
2023-03-16T11:40:41.675Z,3.20
2023-03-16T11:41:41.677Z,2.40
2023-03-16T11:42:41.237Z,2.20
2023-03-16T11:43:41.243Z,2.40
2023-03-16T11:44:41.252Z,2.50
2023-03-16T11:45:41.266Z,2.90
2023-03-16T11:46:41.283Z,2.40
2023-03-16T11:47:41.305Z,2.50
2023-03-16T11:48:41.174Z,2.30
2023-03-16T11:49:41.213Z,3.00
2023-03-16T11:50:41.154Z,3.10
2023-03-16T11:51:42.294Z,2.60
2023-03-16T11:52:41.124Z,2.30
2023-03-16T11:53:41.360Z,2.10
2023-03-16T11:54:41.105Z,1.90
2023-03-16T11:55:41.408Z,1.90
2023-03-16T11:56:41.067Z,2.50
2023-03-16T11:57:41.426Z,2.30
2023-03-16T11:58:41.058Z,2.20
2023-03-16T11:59:46.289Z,2.00
2023-03-16T12:00:42.029Z,2.40
2023-03-16T12:01:45.262Z,2.50
2023-03-16T12:02:42.220Z,2.00
2023-03-16T12:03:41.682Z,2.10
2023-03-16T12:04:41.024Z,3.00
2023-03-16T12:05:41.524Z,1.80
2023-03-16T12:06:40.977Z,2.20
2023-03-16T12:07:40.979Z,2.60
2023-03-16T12:08:41.234Z,2.20
2023-03-16T12:09:40.927Z,3.80
2023-03-16T12:10:40.914Z,2.40
2023-03-16T12:11:42.078Z,2.10
2023-03-16T12:12:41.625Z,1.60
2023-03-16T12:13:41.635Z,1.80
2023-03-16T12:14:40.854Z,1.70
2023-03-16T12:15:40.857Z,2.00
2023-03-16T12:16:48.992Z,2.00
2023-03-16T12:17:42.102Z,2.60
2023-03-16T12:18:40.848Z,1.90
2023-03-16T12:19:41.716Z,1.70
2023-03-16T12:20:40.773Z,2.00
2023-03-16T12:21:41.449Z,2.40
2023-03-16T12:22:40.742Z,2.00
2023-03-16T12:23:41.523Z,2.00
2023-03-16T12:24:40.729Z,1.90
2023-03-16T12:25:40.743Z,1.80
2023-03-16T12:26:40.712Z,1.30
2023-03-16T12:27:40.697Z,1.80
2023-03-16T12:28:40.697Z,2.10
2023-03-16T12:29:40.692Z,1.80
2023-03-16T12:30:40.649Z,2.10
2023-03-16T12:31:40.717Z,1.50
2023-03-16T12:32:40.718Z,1.70
2023-03-16T12:33:40.658Z,2.30
2023-03-16T12:34:40.624Z,2.10
2023-03-16T12:35:40.676Z,2.00
2023-03-16T12:36:40.586Z,2.30
2023-03-16T12:37:40.592Z,2.50
2023-03-16T12:38:40.563Z,2.00
2023-03-16T12:39:40.574Z,1.70
2023-03-16T12:40:40.563Z,1.60
2023-03-16T12:41:40.558Z,2.00
2023-03-16T12:42:40.534Z,2.50
2023-03-16T12:43:40.726Z,1.80
2023-03-16T12:44:40.523Z,2.20
2023-03-16T12:45:40.523Z,1.70
2023-03-16T12:46:40.463Z,2.10
2023-03-16T12:47:40.473Z,2.00
2023-03-16T12:48:40.444Z,2.00
2023-03-16T12:49:40.459Z,1.50
2023-03-16T12:50:40.611Z,1.70
2023-03-16T12:51:40.438Z,1.70
2023-03-16T12:52:40.390Z,2.20
2023-03-16T12:53:40.408Z,2.20
2023-03-16T12:54:40.374Z,2.00
2023-03-16T12:55:40.676Z,1.80
2023-03-16T12:56:40.362Z,1.50
2023-03-16T12:57:40.363Z,2.20
2023-03-16T12:58:40.361Z,1.60
2023-03-16T12:59:40.333Z,2.00
2023-03-16T13:00:40.355Z,1.60
2023-03-16T13:01:40.313Z,1.90
2023-03-16T13:02:40.280Z,1.60
2023-03-16T13:03:40.289Z,2.40
2023-03-16T13:04:40.289Z,1.80
2023-03-16T13:05:40.263Z,2.00
2023-03-16T13:06:40.257Z,1.40
2023-03-16T13:07:40.250Z,1.80
2023-03-16T13:08:40.216Z,1.70
2023-03-16T13:09:40.217Z,2.40
2023-03-16T13:10:40.200Z,2.20
2023-03-16T13:11:40.214Z,1.90
2023-03-16T13:12:40.171Z,1.70
2023-03-16T13:13:40.174Z,1.70
2023-03-16T13:14:40.159Z,1.90
2023-03-16T13:15:40.489Z,1.40
2023-03-16T13:16:40.204Z,1.80
2023-03-16T13:17:40.226Z,1.90
2023-03-16T13:18:40.097Z,1.70
2023-03-16T13:19:40.108Z,1.90
2023-03-16T13:20:40.076Z,2.30
2023-03-16T13:21:40.078Z,1.70
2023-03-16T13:22:40.071Z,1.90